sensor_id;sensor_type;location;lat;lon;timestamp;P1;durP1;ratioP1;P2;durP2;ratioP2
39322;SDS011;25036;53.638;10.134;2023-02-01T00:00:23;12.20;;;2.45;;
39322;SDS011;25036;53.638;10.134;2023-02-01T00:01:23;13.98;;;3.70;;
39322;SDS011;25036;53.638;10.134;2023-02-01T00:02:24;11.00;;;2.80;;
39322;SDS011;25036;53.638;10.134;2023-02-01T00:03:24;11.10;;;2.80;;
39322;SDS011;25036;53.638;10.134;2023-02-01T00:04:24;13.05;;;3.83;;
39322;SDS011;25036;53.638;10.134;2023-02-01T00:05:24;12.37;;;3.27;;
39322;SDS011;25036;53.638;10.134;2023-02-01T00:06:24;12.20;;;3.40;;
39322;SDS011;25036;53.638;10.134;2023-02-01T00:07:24;14.67;;;3.83;;
39322;SDS011;25036;53.638;10.134;2023-02-01T00:08:25;11.23;;;2.40;;
39322;SDS011;25036;53.638;10.134;2023-02-01T00:09:25;12.65;;;3.40;;
39322;SDS011;25036;53.638;10.134;2023-02-01T00:10:25;12.20;;;3.40;;
39322;SDS011;25036;53.638;10.134;2023-02-01T00:11:25;15.67;;;3.00;;
39322;SDS011;25036;53.638;10.134;2023-02-01T00:12:25;15.07;;;4.73;;
39322;SDS011;25036;53.638;10.134;2023-02-01T00:13:27;14.77;;;4.23;;
39322;SDS011;25036;53.638;10.134;2023-02-01T00:14:27;12.90;;;3.53;;
39322;SDS011;25036;53.638;10.134;2023-02-01T00:15:28;9.02;;;2.80;;
39322;SDS011;25036;53.638;10.134;2023-02-01T00:16:28;11.20;;;2.93;;
39322;SDS011;25036;53.638;10.134;2023-02-01T00:17:29;11.07;;;3.38;;
39322;SDS011;25036;53.638;10.134;2023-02-01T00:18:29;13.10;;;3.53;;
39322;SDS011;25036;53.638;10.134;2023-02-01T00:19:29;11.02;;;3.45;;
39322;SDS011;25036;53.638;10.134;2023-02-01T00:20:29;10.07;;;2.73;;
39322;SDS011;25036;53.638;10.134;2023-02-01T00:21:30;8.80;;;2.80;;
39322;SDS011;25036;53.638;10.134;2023-02-01T00:22:30;11.93;;;3.30;;
39322;SDS011;25036;53.638;10.134;2023-02-01T00:23:34;9.40;;;2.87;;
39322;SDS011;25036;53.638;10.134;2023-02-01T00:24:34;9.50;;;3.22;;
39322;SDS011;25036;53.638;10.134;2023-02-01T00:25:34;10.17;;;3.50;;
39322;SDS011;25036;53.638;10.134;2023-02-01T00:26:36;10.63;;;3.03;;
39322;SDS011;25036;53.638;10.134;2023-02-01T00:27:36;10.32;;;3.03;;
39322;SDS011;25036;53.638;10.134;2023-02-01T00:28:36;10.63;;;3.57;;
39322;SDS011;25036;53.638;10.134;2023-02-01T00:29:36;15.30;;;3.27;;
39322;SDS011;25036;53.638;10.134;2023-02-01T00:30:37;15.35;;;3.40;;
39322;SDS011;25036;53.638;10.134;2023-02-01T00:31:37;13.20;;;3.63;;
39322;SDS011;25036;53.638;10.134;2023-02-01T00:32:37;13.55;;;3.58;;
39322;SDS011;25036;53.638;10.134;2023-02-01T00:33:37;15.33;;;4.50;;
39322;SDS011;25036;53.638;10.134;2023-02-01T00:34:37;19.70;;;4.43;;
39322;SDS011;25036;53.638;10.134;2023-02-01T00:35:37;12.20;;;3.20;;
39322;SDS011;25036;53.638;10.134;2023-02-01T00:36:37;12.20;;;3.77;;
39322;SDS011;25036;53.638;10.134;2023-02-01T00:37:37;17.55;;;3.75;;
39322;SDS011;25036;53.638;10.134;2023-02-01T00:38:38;15.90;;;4.13;;
39322;SDS011;25036;53.638;10.134;2023-02-01T00:39:38;17.08;;;4.05;;
39322;SDS011;25036;53.638;10.134;2023-02-01T00:40:38;9.97;;;3.30;;
39322;SDS011;25036;53.638;10.134;2023-02-01T00:41:38;12.93;;;3.70;;
39322;SDS011;25036;53.638;10.134;2023-02-01T00:42:40;15.13;;;4.03;;
39322;SDS011;25036;53.638;10.134;2023-02-01T00:43:40;14.07;;;3.57;;
39322;SDS011;25036;53.638;10.134;2023-02-01T00:44:40;11.23;;;3.25;;
39322;SDS011;25036;53.638;10.134;2023-02-01T00:45:40;17.00;;;4.13;;
39322;SDS011;25036;53.638;10.134;2023-02-01T00:46:41;13.17;;;4.53;;
39322;SDS011;25036;53.638;10.134;2023-02-01T00:47:41;15.30;;;4.90;;
39322;SDS011;25036;53.638;10.134;2023-02-01T00:48:41;15.43;;;4.30;;
39322;SDS011;25036;53.638;10.134;2023-02-01T00:49:41;18.23;;;5.00;;
39322;SDS011;25036;53.638;10.134;2023-02-01T00:50:42;15.93;;;3.40;;
39322;SDS011;25036;53.638;10.134;2023-02-01T00:51:42;13.98;;;3.67;;
39322;SDS011;25036;53.638;10.134;2023-02-01T00:52:42;14.43;;;4.40;;
39322;SDS011;25036;53.638;10.134;2023-02-01T00:53:43;10.80;;;3.50;;
39322;SDS011;25036;53.638;10.134;2023-02-01T00:54:43;13.57;;;3.47;;
39322;SDS011;25036;53.638;10.134;2023-02-01T00:55:49;13.80;;;3.47;;
39322;SDS011;25036;53.638;10.134;2023-02-01T00:56:49;14.48;;;3.85;;
39322;SDS011;25036;53.638;10.134;2023-02-01T00:57:49;11.63;;;2.97;;
39322;SDS011;25036;53.638;10.134;2023-02-01T00:58:49;12.33;;;3.33;;
39322;SDS011;25036;53.638;10.134;2023-02-01T00:59:50;15.00;;;3.60;;
39322;SDS011;25036;53.638;10.134;2023-02-01T01:00:50;18.00;;;4.10;;
39322;SDS011;25036;53.638;10.134;2023-02-01T01:01:50;15.68;;;3.85;;
39322;SDS011;25036;53.638;10.134;2023-02-01T01:02:50;13.83;;;3.93;;
39322;SDS011;25036;53.638;10.134;2023-02-01T01:03:52;11.60;;;3.22;;
39322;SDS011;25036;53.638;10.134;2023-02-01T01:04:52;16.50;;;3.83;;
39322;SDS011;25036;53.638;10.134;2023-02-01T01:05:56;13.93;;;4.47;;
39322;SDS011;25036;53.638;10.134;2023-02-01T01:06:56;18.45;;;4.60;;
39322;SDS011;25036;53.638;10.134;2023-02-01T01:07:56;16.37;;;5.23;;
39322;SDS011;25036;53.638;10.134;2023-02-01T01:08:57;15.63;;;4.17;;
39322;SDS011;25036;53.638;10.134;2023-02-01T01:09:57;13.65;;;3.88;;
39322;SDS011;25036;53.638;10.134;2023-02-01T01:10:58;13.80;;;3.60;;
39322;SDS011;25036;53.638;10.134;2023-02-01T01:11:58;17.80;;;3.80;;
39322;SDS011;25036;53.638;10.134;2023-02-01T01:13:02;11.57;;;3.70;;
39322;SDS011;25036;53.638;10.134;2023-02-01T01:14:02;13.73;;;4.07;;
39322;SDS011;25036;53.638;10.134;2023-02-01T01:15:03;13.85;;;4.80;;
39322;SDS011;25036;53.638;10.134;2023-02-01T01:16:04;18.10;;;4.20;;
39322;SDS011;25036;53.638;10.134;2023-02-01T01:17:04;10.70;;;3.50;;
39322;SDS011;25036;53.638;10.134;2023-02-01T01:18:05;13.50;;;3.73;;
39322;SDS011;25036;53.638;10.134;2023-02-01T01:19:05;14.45;;;4.22;;
39322;SDS011;25036;53.638;10.134;2023-02-01T01:20:06;13.27;;;3.83;;
39322;SDS011;25036;53.638;10.134;2023-02-01T01:21:07;13.45;;;4.22;;
39322;SDS011;25036;53.638;10.134;2023-02-01T01:22:07;15.00;;;3.70;;
39322;SDS011;25036;53.638;10.134;2023-02-01T01:23:08;16.67;;;5.10;;
39322;SDS011;25036;53.638;10.134;2023-02-01T01:24:08;16.38;;;4.65;;
39322;SDS011;25036;53.638;10.134;2023-02-01T01:25:08;15.32;;;3.85;;
39322;SDS011;25036;53.638;10.134;2023-02-01T01:26:10;16.80;;;5.13;;
39322;SDS011;25036;53.638;10.134;2023-02-01T01:27:10;18.25;;;4.32;;
39322;SDS011;25036;53.638;10.134;2023-02-01T01:28:10;16.77;;;4.57;;
39322;SDS011;25036;53.638;10.134;2023-02-01T01:29:10;15.33;;;4.30;;
39322;SDS011;25036;53.638;10.134;2023-02-01T01:30:11;15.43;;;4.97;;
39322;SDS011;25036;53.638;10.134;2023-02-01T01:31:12;17.77;;;5.07;;
39322;SDS011;25036;53.638;10.134;2023-02-01T01:32:12;17.48;;;4.63;;
39322;SDS011;25036;53.638;10.134;2023-02-01T01:33:12;19.03;;;4.83;;
39322;SDS011;25036;53.638;10.134;2023-02-01T01:34:13;21.70;;;5.03;;
39322;SDS011;25036;53.638;10.134;2023-02-01T01:35:13;17.20;;;4.23;;
39322;SDS011;25036;53.638;10.134;2023-02-01T01:36:13;11.88;;;3.88;;
39322;SDS011;25036;53.638;10.134;2023-02-01T01:37:13;19.23;;;4.63;;
39322;SDS011;25036;53.638;10.134;2023-02-01T01:38:13;17.97;;;4.67;;
39322;SDS011;25036;53.638;10.134;2023-02-01T01:39:14;15.48;;;4.55;;
39322;SDS011;25036;53.638;10.134;2023-02-01T01:40:14;19.00;;;4.73;;
39322;SDS011;25036;53.638;10.134;2023-02-01T01:41:18;17.03;;;4.77;;
39322;SDS011;25036;53.638;10.134;2023-02-01T01:42:19;16.45;;;4.65;;
39322;SDS011;25036;53.638;10.134;2023-02-01T01:43:19;17.77;;;4.80;;
39322;SDS011;25036;53.638;10.134;2023-02-01T01:45:41;20.42;;;4.97;;
39322;SDS011;25036;53.638;10.134;2023-02-01T01:46:41;15.25;;;4.53;;
39322;SDS011;25036;53.638;10.134;2023-02-01T01:47:43;15.77;;;4.13;;
39322;SDS011;25036;53.638;10.134;2023-02-01T01:48:44;17.63;;;3.97;;
39322;SDS011;25036;53.638;10.134;2023-02-01T01:49:45;19.52;;;5.10;;
39322;SDS011;25036;53.638;10.134;2023-02-01T01:50:46;14.80;;;3.90;;
39322;SDS011;25036;53.638;10.134;2023-02-01T01:51:50;18.23;;;4.55;;
39322;SDS011;25036;53.638;10.134;2023-02-01T01:52:51;14.32;;;4.40;;
39322;SDS011;25036;53.638;10.134;2023-02-01T01:53:55;17.35;;;4.57;;
39322;SDS011;25036;53.638;10.134;2023-02-01T01:54:56;16.92;;;4.80;;
39322;SDS011;25036;53.638;10.134;2023-02-01T01:55:57;23.17;;;5.18;;
39322;SDS011;25036;53.638;10.134;2023-02-01T01:57:03;16.43;;;4.53;;
39322;SDS011;25036;53.638;10.134;2023-02-01T01:58:05;20.92;;;5.13;;
39322;SDS011;25036;53.638;10.134;2023-02-01T01:59:06;15.85;;;4.13;;
39322;SDS011;25036;53.638;10.134;2023-02-01T02:00:09;16.60;;;4.95;;
39322;SDS011;25036;53.638;10.134;2023-02-01T02:01:10;14.45;;;3.28;;
39322;SDS011;25036;53.638;10.134;2023-02-01T02:02:10;14.13;;;4.70;;
39322;SDS011;25036;53.638;10.134;2023-02-01T02:03:14;17.70;;;4.40;;
39322;SDS011;25036;53.638;10.134;2023-02-01T02:04:17;15.40;;;5.10;;
39322;SDS011;25036;53.638;10.134;2023-02-01T02:05:17;16.45;;;4.70;;
39322;SDS011;25036;53.638;10.134;2023-02-01T02:06:21;14.93;;;4.80;;
39322;SDS011;25036;53.638;10.134;2023-02-01T02:07:26;14.02;;;4.05;;
39322;SDS011;25036;53.638;10.134;2023-02-01T02:08:27;16.05;;;4.20;;
39322;SDS011;25036;53.638;10.134;2023-02-01T02:09:27;16.73;;;5.07;;
39322;SDS011;25036;53.638;10.134;2023-02-01T02:10:28;16.13;;;4.10;;
39322;SDS011;25036;53.638;10.134;2023-02-01T02:11:47;17.88;;;4.30;;
39322;SDS011;25036;53.638;10.134;2023-02-01T02:12:47;14.87;;;3.63;;
39322;SDS011;25036;53.638;10.134;2023-02-01T02:13:48;15.15;;;4.50;;
39322;SDS011;25036;53.638;10.134;2023-02-01T02:14:50;15.23;;;4.18;;
39322;SDS011;25036;53.638;10.134;2023-02-01T02:15:58;16.67;;;5.03;;
39322;SDS011;25036;53.638;10.134;2023-02-01T02:18:07;17.33;;;4.87;;
39322;SDS011;25036;53.638;10.134;2023-02-01T02:19:22;17.30;;;4.32;;
39322;SDS011;25036;53.638;10.134;2023-02-01T02:21:42;16.08;;;3.90;;
39322;SDS011;25036;53.638;10.134;2023-02-01T02:27:22;16.23;;;3.92;;
39322;SDS011;25036;53.638;10.134;2023-02-01T02:32:23;18.63;;;4.78;;
39322;SDS011;25036;53.638;10.134;2023-02-01T02:34:37;20.10;;;4.78;;
39322;SDS011;25036;53.638;10.134;2023-02-01T02:37:12;15.35;;;4.95;;
39322;SDS011;25036;53.638;10.134;2023-02-01T02:38:18;16.30;;;4.72;;
39322;SDS011;25036;53.638;10.134;2023-02-01T02:41:31;17.47;;;4.43;;
39322;SDS011;25036;53.638;10.134;2023-02-01T02:44:53;15.77;;;4.40;;
39322;SDS011;25036;53.638;10.134;2023-02-01T02:47:13;15.52;;;4.70;;
39322;SDS011;25036;53.638;10.134;2023-02-01T02:48:28;17.35;;;4.38;;
39322;SDS011;25036;53.638;10.134;2023-02-01T02:49:34;15.75;;;4.43;;
39322;SDS011;25036;53.638;10.134;2023-02-01T02:50:41;15.77;;;4.18;;
39322;SDS011;25036;53.638;10.134;2023-02-01T02:52:05;18.35;;;4.70;;
39322;SDS011;25036;53.638;10.134;2023-02-01T02:53:28;15.43;;;3.70;;
39322;SDS011;25036;53.638;10.134;2023-02-01T02:54:49;16.63;;;4.88;;
39322;SDS011;25036;53.638;10.134;2023-02-01T02:55:51;15.13;;;4.00;;
39322;SDS011;25036;53.638;10.134;2023-02-01T02:56:52;17.95;;;4.18;;
39322;SDS011;25036;53.638;10.134;2023-02-01T02:58:12;18.70;;;4.45;;
39322;SDS011;25036;53.638;10.134;2023-02-01T02:59:32;14.70;;;3.25;;
39322;SDS011;25036;53.638;10.134;2023-02-01T03:00:52;18.10;;;3.90;;
39322;SDS011;25036;53.638;10.134;2023-02-01T03:02:12;14.18;;;3.97;;
39322;SDS011;25036;53.638;10.134;2023-02-01T03:03:31;18.95;;;4.38;;
39322;SDS011;25036;53.638;10.134;2023-02-01T03:04:53;15.82;;;4.35;;
39322;SDS011;25036;53.638;10.134;2023-02-01T03:05:56;13.90;;;3.67;;
39322;SDS011;25036;53.638;10.134;2023-02-01T03:06:56;15.90;;;4.33;;
39322;SDS011;25036;53.638;10.134;2023-02-01T03:07:57;14.67;;;4.23;;
39322;SDS011;25036;53.638;10.134;2023-02-01T03:09:01;16.48;;;4.93;;
39322;SDS011;25036;53.638;10.134;2023-02-01T03:10:03;19.67;;;5.15;;
39322;SDS011;25036;53.638;10.134;2023-02-01T03:11:06;13.88;;;4.32;;
39322;SDS011;25036;53.638;10.134;2023-02-01T03:12:09;15.40;;;4.05;;
39322;SDS011;25036;53.638;10.134;2023-02-01T03:13:50;13.23;;;3.97;;
39322;SDS011;25036;53.638;10.134;2023-02-01T03:14:53;14.85;;;4.40;;
39322;SDS011;25036;53.638;10.134;2023-02-01T03:17:08;14.23;;;4.20;;
39322;SDS011;25036;53.638;10.134;2023-02-01T03:18:13;14.05;;;4.15;;
39322;SDS011;25036;53.638;10.134;2023-02-01T03:19:16;11.80;;;3.53;;
39322;SDS011;25036;53.638;10.134;2023-02-01T03:20:18;15.77;;;4.68;;
39322;SDS011;25036;53.638;10.134;2023-02-01T03:21:31;19.45;;;4.95;;
39322;SDS011;25036;53.638;10.134;2023-02-01T03:22:33;11.95;;;3.78;;
39322;SDS011;25036;53.638;10.134;2023-02-01T03:23:35;4.55;;;1.23;;
39322;SDS011;25036;53.638;10.134;2023-02-01T03:24:55;14.68;;;4.10;;
39322;SDS011;25036;53.638;10.134;2023-02-01T03:25:57;8.35;;;2.22;;
39322;SDS011;25036;53.638;10.134;2023-02-01T03:28:08;8.68;;;3.15;;
39322;SDS011;25036;53.638;10.134;2023-02-01T03:29:14;10.88;;;3.67;;
39322;SDS011;25036;53.638;10.134;2023-02-01T03:30:20;11.95;;;3.40;;
39322;SDS011;25036;53.638;10.134;2023-02-01T03:31:21;13.07;;;3.38;;
39322;SDS011;25036;53.638;10.134;2023-02-01T03:32:21;14.00;;;4.00;;
39322;SDS011;25036;53.638;10.134;2023-02-01T03:33:23;13.63;;;3.90;;
39322;SDS011;25036;53.638;10.134;2023-02-01T03:34:24;15.07;;;3.20;;
39322;SDS011;25036;53.638;10.134;2023-02-01T03:35:48;12.73;;;4.27;;
39322;SDS011;25036;53.638;10.134;2023-02-01T03:36:50;12.82;;;3.20;;
39322;SDS011;25036;53.638;10.134;2023-02-01T03:37:50;12.85;;;3.25;;
39322;SDS011;25036;53.638;10.134;2023-02-01T03:38:58;8.25;;;3.03;;
39322;SDS011;25036;53.638;10.134;2023-02-01T03:40:04;8.02;;;3.05;;
39322;SDS011;25036;53.638;10.134;2023-02-01T03:42:26;9.88;;;3.15;;
39322;SDS011;25036;53.638;10.134;2023-02-01T03:43:27;7.88;;;2.72;;
39322;SDS011;25036;53.638;10.134;2023-02-01T03:44:31;12.45;;;3.53;;
39322;SDS011;25036;53.638;10.134;2023-02-01T03:45:34;11.15;;;3.20;;
39322;SDS011;25036;53.638;10.134;2023-02-01T03:46:37;10.65;;;3.65;;
39322;SDS011;25036;53.638;10.134;2023-02-01T03:47:43;12.18;;;3.30;;
39322;SDS011;25036;53.638;10.134;2023-02-01T03:48:44;12.02;;;3.80;;
39322;SDS011;25036;53.638;10.134;2023-02-01T03:49:45;13.03;;;4.10;;
39322;SDS011;25036;53.638;10.134;2023-02-01T03:50:48;12.90;;;3.25;;
39322;SDS011;25036;53.638;10.134;2023-02-01T03:51:49;10.20;;;3.25;;
39322;SDS011;25036;53.638;10.134;2023-02-01T03:53:02;12.65;;;3.60;;
39322;SDS011;25036;53.638;10.134;2023-02-01T03:54:03;13.20;;;4.43;;
39322;SDS011;25036;53.638;10.134;2023-02-01T03:55:04;9.48;;;3.30;;
39322;SDS011;25036;53.638;10.134;2023-02-01T03:56:05;11.85;;;3.40;;
39322;SDS011;25036;53.638;10.134;2023-02-01T03:57:08;12.73;;;3.55;;
39322;SDS011;25036;53.638;10.134;2023-02-01T03:58:11;15.30;;;4.13;;
39322;SDS011;25036;53.638;10.134;2023-02-01T03:59:12;10.50;;;3.17;;
39322;SDS011;25036;53.638;10.134;2023-02-01T04:01:16;10.55;;;3.10;;
39322;SDS011;25036;53.638;10.134;2023-02-01T04:02:16;11.27;;;3.67;;
39322;SDS011;25036;53.638;10.134;2023-02-01T04:03:16;11.73;;;2.93;;
39322;SDS011;25036;53.638;10.134;2023-02-01T04:04:16;16.63;;;2.97;;
39322;SDS011;25036;53.638;10.134;2023-02-01T04:05:20;12.32;;;3.55;;
39322;SDS011;25036;53.638;10.134;2023-02-01T04:06:20;9.95;;;2.53;;
39322;SDS011;25036;53.638;10.134;2023-02-01T04:07:20;11.68;;;3.55;;
39322;SDS011;25036;53.638;10.134;2023-02-01T04:08:22;10.70;;;3.05;;
39322;SDS011;25036;53.638;10.134;2023-02-01T04:09:23;11.68;;;3.20;;
39322;SDS011;25036;53.638;10.134;2023-02-01T04:10:23;8.53;;;2.37;;
39322;SDS011;25036;53.638;10.134;2023-02-01T04:11:23;13.50;;;3.05;;
39322;SDS011;25036;53.638;10.134;2023-02-01T04:12:24;12.33;;;4.10;;
39322;SDS011;25036;53.638;10.134;2023-02-01T04:13:24;7.27;;;2.50;;
39322;SDS011;25036;53.638;10.134;2023-02-01T04:14:24;10.10;;;3.03;;
39322;SDS011;25036;53.638;10.134;2023-02-01T04:15:24;8.90;;;2.87;;
39322;SDS011;25036;53.638;10.134;2023-02-01T04:16:24;8.63;;;3.03;;
39322;SDS011;25036;53.638;10.134;2023-02-01T04:17:24;10.40;;;2.60;;
39322;SDS011;25036;53.638;10.134;2023-02-01T04:18:24;7.87;;;2.57;;
39322;SDS011;25036;53.638;10.134;2023-02-01T04:19:25;13.43;;;3.90;;
39322;SDS011;25036;53.638;10.134;2023-02-01T04:20:25;10.73;;;3.50;;
39322;SDS011;25036;53.638;10.134;2023-02-01T04:21:25;10.10;;;2.97;;
39322;SDS011;25036;53.638;10.134;2023-02-01T04:22:25;10.65;;;3.38;;
39322;SDS011;25036;53.638;10.134;2023-02-01T04:23:26;10.20;;;3.47;;
39322;SDS011;25036;53.638;10.134;2023-02-01T04:24:26;10.30;;;3.00;;
39322;SDS011;25036;53.638;10.134;2023-02-01T04:25:26;9.97;;;2.90;;
39322;SDS011;25036;53.638;10.134;2023-02-01T04:26:26;6.53;;;2.37;;
39322;SDS011;25036;53.638;10.134;2023-02-01T04:27:26;7.30;;;2.30;;
39322;SDS011;25036;53.638;10.134;2023-02-01T04:28:27;8.13;;;2.50;;
39322;SDS011;25036;53.638;10.134;2023-02-01T04:29:27;5.47;;;2.13;;
39322;SDS011;25036;53.638;10.134;2023-02-01T04:30:27;8.07;;;2.53;;
39322;SDS011;25036;53.638;10.134;2023-02-01T04:31:27;6.70;;;2.25;;
39322;SDS011;25036;53.638;10.134;2023-02-01T04:32:27;8.43;;;2.87;;
39322;SDS011;25036;53.638;10.134;2023-02-01T04:33:27;8.93;;;2.70;;
39322;SDS011;25036;53.638;10.134;2023-02-01T04:34:28;7.10;;;2.20;;
39322;SDS011;25036;53.638;10.134;2023-02-01T04:35:28;9.30;;;2.67;;
39322;SDS011;25036;53.638;10.134;2023-02-01T04:36:28;8.33;;;2.27;;
39322;SDS011;25036;53.638;10.134;2023-02-01T04:37:29;9.50;;;2.67;;
39322;SDS011;25036;53.638;10.134;2023-02-01T04:38:29;7.87;;;2.70;;
39322;SDS011;25036;53.638;10.134;2023-02-01T04:39:29;10.52;;;2.78;;
39322;SDS011;25036;53.638;10.134;2023-02-01T04:40:29;7.57;;;2.37;;
39322;SDS011;25036;53.638;10.134;2023-02-01T04:41:29;7.13;;;2.50;;
39322;SDS011;25036;53.638;10.134;2023-02-01T04:42:30;11.60;;;3.17;;
39322;SDS011;25036;53.638;10.134;2023-02-01T04:43:30;7.80;;;2.65;;
39322;SDS011;25036;53.638;10.134;2023-02-01T04:44:30;10.80;;;3.37;;
39322;SDS011;25036;53.638;10.134;2023-02-01T04:45:30;10.57;;;3.13;;
39322;SDS011;25036;53.638;10.134;2023-02-01T04:46:30;9.77;;;3.10;;
39322;SDS011;25036;53.638;10.134;2023-02-01T04:47:31;10.68;;;3.35;;
39322;SDS011;25036;53.638;10.134;2023-02-01T04:48:31;9.80;;;2.87;;
39322;SDS011;25036;53.638;10.134;2023-02-01T04:49:31;9.70;;;3.08;;
39322;SDS011;25036;53.638;10.134;2023-02-01T04:50:31;9.87;;;2.90;;
39322;SDS011;25036;53.638;10.134;2023-02-01T04:51:31;10.57;;;2.53;;
39322;SDS011;25036;53.638;10.134;2023-02-01T04:52:32;10.45;;;3.13;;
39322;SDS011;25036;53.638;10.134;2023-02-01T04:53:32;9.23;;;2.67;;
39322;SDS011;25036;53.638;10.134;2023-02-01T04:54:32;7.65;;;2.40;;
39322;SDS011;25036;53.638;10.134;2023-02-01T04:55:32;8.45;;;2.75;;
39322;SDS011;25036;53.638;10.134;2023-02-01T04:56:33;8.03;;;2.50;;
39322;SDS011;25036;53.638;10.134;2023-02-01T04:57:34;9.63;;;2.45;;
39322;SDS011;25036;53.638;10.134;2023-02-01T04:58:34;5.90;;;1.67;;
39322;SDS011;25036;53.638;10.134;2023-02-01T04:59:34;9.80;;;2.80;;
39322;SDS011;25036;53.638;10.134;2023-02-01T05:00:35;7.93;;;1.80;;
39322;SDS011;25036;53.638;10.134;2023-02-01T05:01:35;5.78;;;1.98;;
39322;SDS011;25036;53.638;10.134;2023-02-01T05:02:35;8.40;;;2.23;;
39322;SDS011;25036;53.638;10.134;2023-02-01T05:03:35;5.15;;;1.83;;
39322;SDS011;25036;53.638;10.134;2023-02-01T05:04:36;7.82;;;2.15;;
39322;SDS011;25036;53.638;10.134;2023-02-01T05:05:36;4.73;;;1.50;;
39322;SDS011;25036;53.638;10.134;2023-02-01T05:06:36;5.30;;;1.93;;
39322;SDS011;25036;53.638;10.134;2023-02-01T05:07:36;5.93;;;1.70;;
39322;SDS011;25036;53.638;10.134;2023-02-01T05:08:36;7.90;;;2.57;;
39322;SDS011;25036;53.638;10.134;2023-02-01T05:09:36;6.53;;;2.27;;
39322;SDS011;25036;53.638;10.134;2023-02-01T05:10:36;7.63;;;2.10;;
39322;SDS011;25036;53.638;10.134;2023-02-01T05:11:37;4.23;;;1.07;;
39322;SDS011;25036;53.638;10.134;2023-02-01T05:12:55;5.15;;;1.65;;
39322;SDS011;25036;53.638;10.134;2023-02-01T05:14:34;5.95;;;2.08;;
39322;SDS011;25036;53.638;10.134;2023-02-01T05:15:34;4.77;;;1.67;;
39322;SDS011;25036;53.638;10.134;2023-02-01T05:16:34;5.00;;;2.03;;
39322;SDS011;25036;53.638;10.134;2023-02-01T05:17:35;5.18;;;1.45;;
39322;SDS011;25036;53.638;10.134;2023-02-01T05:18:35;7.53;;;1.97;;
39322;SDS011;25036;53.638;10.134;2023-02-01T05:19:35;5.53;;;1.57;;
39322;SDS011;25036;53.638;10.134;2023-02-01T05:20:35;3.57;;;1.70;;
39322;SDS011;25036;53.638;10.134;2023-02-01T05:21:35;7.40;;;2.00;;
39322;SDS011;25036;53.638;10.134;2023-02-01T05:22:35;4.00;;;1.70;;
39322;SDS011;25036;53.638;10.134;2023-02-01T05:23:35;4.70;;;1.40;;
39322;SDS011;25036;53.638;10.134;2023-02-01T05:24:55;6.22;;;1.63;;
39322;SDS011;25036;53.638;10.134;2023-02-01T05:25:59;3.50;;;1.30;;
39322;SDS011;25036;53.638;10.134;2023-02-01T05:27:00;5.22;;;1.20;;
39322;SDS011;25036;53.638;10.134;2023-02-01T05:28:00;5.03;;;1.20;;
39322;SDS011;25036;53.638;10.134;2023-02-01T05:29:00;4.77;;;1.70;;
39322;SDS011;25036;53.638;10.134;2023-02-01T05:30:02;2.75;;;1.10;;
39322;SDS011;25036;53.638;10.134;2023-02-01T05:31:08;3.85;;;1.20;;
39322;SDS011;25036;53.638;10.134;2023-02-01T05:32:09;2.85;;;1.20;;
39322;SDS011;25036;53.638;10.134;2023-02-01T05:33:09;3.28;;;1.00;;
39322;SDS011;25036;53.638;10.134;2023-02-01T05:34:10;2.63;;;0.90;;
39322;SDS011;25036;53.638;10.134;2023-02-01T05:35:10;1.93;;;0.60;;
39322;SDS011;25036;53.638;10.134;2023-02-01T05:36:10;3.03;;;0.90;;
39322;SDS011;25036;53.638;10.134;2023-02-01T05:37:10;2.47;;;0.80;;
39322;SDS011;25036;53.638;10.134;2023-02-01T05:38:10;5.27;;;1.20;;
39322;SDS011;25036;53.638;10.134;2023-02-01T05:39:10;4.13;;;1.30;;
39322;SDS011;25036;53.638;10.134;2023-02-01T05:40:11;2.60;;;0.90;;
39322;SDS011;25036;53.638;10.134;2023-02-01T05:41:11;2.35;;;1.00;;
39322;SDS011;25036;53.638;10.134;2023-02-01T05:42:11;2.60;;;0.67;;
39322;SDS011;25036;53.638;10.134;2023-02-01T05:43:11;1.37;;;0.80;;
39322;SDS011;25036;53.638;10.134;2023-02-01T05:44:11;2.87;;;0.83;;
39322;SDS011;25036;53.638;10.134;2023-02-01T05:45:11;2.53;;;0.80;;
39322;SDS011;25036;53.638;10.134;2023-02-01T05:46:12;2.33;;;0.52;;
39322;SDS011;25036;53.638;10.134;2023-02-01T05:47:12;1.33;;;0.65;;
39322;SDS011;25036;53.638;10.134;2023-02-01T05:48:13;2.08;;;0.73;;
39322;SDS011;25036;53.638;10.134;2023-02-01T05:49:13;1.77;;;0.63;;
39322;SDS011;25036;53.638;10.134;2023-02-01T05:50:13;2.20;;;0.67;;
39322;SDS011;25036;53.638;10.134;2023-02-01T05:51:13;0.88;;;0.40;;
39322;SDS011;25036;53.638;10.134;2023-02-01T05:52:13;1.70;;;0.70;;
39322;SDS011;25036;53.638;10.134;2023-02-01T05:53:19;1.17;;;0.60;;
39322;SDS011;25036;53.638;10.134;2023-02-01T05:54:19;1.50;;;0.50;;
39322;SDS011;25036;53.638;10.134;2023-02-01T05:55:19;1.50;;;0.70;;
39322;SDS011;25036;53.638;10.134;2023-02-01T05:56:19;2.40;;;0.73;;
39322;SDS011;25036;53.638;10.134;2023-02-01T05:57:19;0.67;;;0.40;;
39322;SDS011;25036;53.638;10.134;2023-02-01T05:58:19;1.48;;;0.40;;
39322;SDS011;25036;53.638;10.134;2023-02-01T05:59:19;1.20;;;0.60;;
39322;SDS011;25036;53.638;10.134;2023-02-01T06:00:20;1.53;;;0.57;;
39322;SDS011;25036;53.638;10.134;2023-02-01T06:01:20;2.40;;;0.45;;
39322;SDS011;25036;53.638;10.134;2023-02-01T06:02:20;1.30;;;0.40;;
39322;SDS011;25036;53.638;10.134;2023-02-01T06:03:21;1.40;;;0.40;;
39322;SDS011;25036;53.638;10.134;2023-02-01T06:04:21;1.30;;;0.30;;
39322;SDS011;25036;53.638;10.134;2023-02-01T06:05:21;1.50;;;0.63;;
39322;SDS011;25036;53.638;10.134;2023-02-01T06:06:22;1.05;;;0.38;;
39322;SDS011;25036;53.638;10.134;2023-02-01T06:07:22;1.70;;;0.40;;
39322;SDS011;25036;53.638;10.134;2023-02-01T06:08:22;1.88;;;0.73;;
39322;SDS011;25036;53.638;10.134;2023-02-01T06:09:25;1.27;;;0.50;;
39322;SDS011;25036;53.638;10.134;2023-02-01T06:10:25;1.33;;;0.60;;
39322;SDS011;25036;53.638;10.134;2023-02-01T06:11:25;1.13;;;0.50;;
39322;SDS011;25036;53.638;10.134;2023-02-01T06:12:26;1.58;;;0.50;;
39322;SDS011;25036;53.638;10.134;2023-02-01T06:13:28;1.10;;;0.45;;
39322;SDS011;25036;53.638;10.134;2023-02-01T06:14:28;1.70;;;0.73;;
39322;SDS011;25036;53.638;10.134;2023-02-01T06:15:28;2.10;;;0.45;;
39322;SDS011;25036;53.638;10.134;2023-02-01T06:16:29;1.73;;;0.50;;
39322;SDS011;25036;53.638;10.134;2023-02-01T06:17:29;1.50;;;0.35;;
39322;SDS011;25036;53.638;10.134;2023-02-01T06:18:29;0.88;;;0.32;;
39322;SDS011;25036;53.638;10.134;2023-02-01T06:19:30;1.65;;;0.50;;
39322;SDS011;25036;53.638;10.134;2023-02-01T06:20:30;0.97;;;0.33;;
39322;SDS011;25036;53.638;10.134;2023-02-01T06:21:30;1.23;;;0.47;;
39322;SDS011;25036;53.638;10.134;2023-02-01T06:22:30;2.73;;;0.50;;
39322;SDS011;25036;53.638;10.134;2023-02-01T06:23:31;1.87;;;0.47;;
39322;SDS011;25036;53.638;10.134;2023-02-01T06:24:31;1.00;;;0.40;;
39322;SDS011;25036;53.638;10.134;2023-02-01T06:25:31;1.45;;;0.40;;
39322;SDS011;25036;53.638;10.134;2023-02-01T06:26:31;0.53;;;0.30;;
39322;SDS011;25036;53.638;10.134;2023-02-01T06:27:32;1.65;;;0.80;;
39322;SDS011;25036;53.638;10.134;2023-02-01T06:28:32;2.05;;;0.88;;
39322;SDS011;25036;53.638;10.134;2023-02-01T06:29:32;1.70;;;0.63;;
39322;SDS011;25036;53.638;10.134;2023-02-01T06:30:33;1.67;;;0.60;;